sensor_id;sensor_type;location;lat;lon;timestamp;pressure;altitude;pressure_sealevel;temperature;humidity
11343;BME280;5726;42.160;24.746;2023-11-21T00:02:14;99381.00;;;11.77;73.59
11343;BME280;5726;42.160;24.746;2023-11-21T00:04:40;99376.50;;;11.59;73.80
11343;BME280;5726;42.160;24.746;2023-11-21T00:07:05;99377.59;;;11.72;73.52
11343;BME280;5726;42.160;24.746;2023-11-21T00:09:32;99372.22;;;11.58;73.99
11343;BME280;5726;42.160;24.746;2023-11-21T00:11:57;99376.22;;;11.61;73.80
11343;BME280;5726;42.160;24.746;2023-11-21T00:14:24;99378.31;;;11.64;73.35
11343;BME280;5726;42.160;24.746;2023-11-21T00:16:50;99382.72;;;11.42;74.47
11343;BME280;5726;42.160;24.746;2023-11-21T00:19:15;99381.03;;;11.45;74.54
11343;BME280;5726;42.160;24.746;2023-11-21T00:21:42;99379.50;;;11.58;74.53
11343;BME280;5726;42.160;24.746;2023-11-21T00:24:10;99375.41;;;11.60;74.87
11343;BME280;5726;42.160;24.746;2023-11-21T00:26:35;99378.09;;;11.74;73.94
11343;BME280;5726;42.160;24.746;2023-11-21T00:29:03;99374.59;;;11.60;74.58
11343;BME280;5726;42.160;24.746;2023-11-21T00:31:28;99374.78;;;11.77;74.31
11343;BME280;5726;42.160;24.746;2023-11-21T00:33:56;99380.97;;;11.91;74.46
11343;BME280;5726;42.160;24.746;2023-11-21T00:36:21;99367.38;;;12.22;72.57
11343;BME280;5726;42.160;24.746;2023-11-21T00:38:47;99366.00;;;12.25;72.70
11343;BME280;5726;42.160;24.746;2023-11-21T00:41:13;99364.41;;;12.24;72.48
11343;BME280;5726;42.160;24.746;2023-11-21T00:43:39;99371.38;;;12.25;72.62
11343;BME280;5726;42.160;24.746;2023-11-21T00:46:05;99372.53;;;12.32;72.13
11343;BME280;5726;42.160;24.746;2023-11-21T00:48:33;99376.72;;;12.38;71.88
11343;BME280;5726;42.160;24.746;2023-11-21T00:50:58;99380.44;;;12.50;71.58
11343;BME280;5726;42.160;24.746;2023-11-21T00:53:24;99382.16;;;12.11;72.59
11343;BME280;5726;42.160;24.746;2023-11-21T00:55:49;99378.53;;;12.29;72.75
11343;BME280;5726;42.160;24.746;2023-11-21T00:58:15;99376.94;;;12.28;72.12
11343;BME280;5726;42.160;24.746;2023-11-21T01:00:41;99375.63;;;12.26;72.27
11343;BME280;5726;42.160;24.746;2023-11-21T01:03:06;99380.44;;;12.15;72.51
11343;BME280;5726;42.160;24.746;2023-11-21T01:05:33;99381.91;;;12.21;72.10
11343;BME280;5726;42.160;24.746;2023-11-21T01:07:59;99367.00;;;12.15;71.64
11343;BME280;5726;42.160;24.746;2023-11-21T01:10:25;99373.72;;;11.78;72.26
11343;BME280;5726;42.160;24.746;2023-11-21T01:12:50;99375.75;;;11.41;74.52
11343;BME280;5726;42.160;24.746;2023-11-21T01:15:16;99382.84;;;11.05;76.15
11343;BME280;5726;42.160;24.746;2023-11-21T01:17:41;99370.75;;;11.21;75.82
11343;BME280;5726;42.160;24.746;2023-11-21T01:20:08;99377.72;;;11.35;74.63
11343;BME280;5726;42.160;24.746;2023-11-21T01:22:36;99377.59;;;11.13;75.09
11343;BME280;5726;42.160;24.746;2023-11-21T01:25:02;99375.69;;;10.69;76.64
11343;BME280;5726;42.160;24.746;2023-11-21T01:27:29;99358.94;;;10.40;78.32
11343;BME280;5726;42.160;24.746;2023-11-21T01:29:55;99369.53;;;10.50;78.50
11343;BME280;5726;42.160;24.746;2023-11-21T01:32:21;99370.38;;;10.64;78.33
11343;BME280;5726;42.160;24.746;2023-11-21T01:34:47;99367.88;;;10.54;78.17
11343;BME280;5726;42.160;24.746;2023-11-21T01:37:13;99374.06;;;10.68;77.63
11343;BME280;5726;42.160;24.746;2023-11-21T01:39:39;99372.00;;;10.47;79.76
11343;BME280;5726;42.160;24.746;2023-11-21T01:42:06;99372.47;;;10.67;78.66
11343;BME280;5726;42.160;24.746;2023-11-21T01:44:33;99372.75;;;10.84;77.05
11343;BME280;5726;42.160;24.746;2023-11-21T01:46:58;99371.88;;;10.70;77.52
11343;BME280;5726;42.160;24.746;2023-11-21T01:49:24;99363.44;;;10.63;77.64
11343;BME280;5726;42.160;24.746;2023-11-21T01:51:50;99360.47;;;10.46;78.13
11343;BME280;5726;42.160;24.746;2023-11-21T01:54:17;99358.75;;;10.37;78.68
11343;BME280;5726;42.160;24.746;2023-11-21T01:56:46;99362.66;;;10.07;80.34
11343;BME280;5726;42.160;24.746;2023-11-21T01:59:12;99368.75;;;9.90;81.72
11343;BME280;5726;42.160;24.746;2023-11-21T02:01:39;99364.44;;;9.94;82.42
11343;BME280;5726;42.160;24.746;2023-11-21T02:04:04;99366.03;;;9.95;84.20
11343;BME280;5726;42.160;24.746;2023-11-21T02:06:30;99362.31;;;9.91;83.58
11343;BME280;5726;42.160;24.746;2023-11-21T02:08:56;99360.94;;;9.93;83.98
11343;BME280;5726;42.160;24.746;2023-11-21T02:11:22;99352.59;;;10.00;82.53
11343;BME280;5726;42.160;24.746;2023-11-21T02:13:47;99358.63;;;9.87;82.79
11343;BME280;5726;42.160;24.746;2023-11-21T02:16:15;99353.91;;;10.02;81.63
11343;BME280;5726;42.160;24.746;2023-11-21T02:18:40;99361.53;;;9.67;82.89
11343;BME280;5726;42.160;24.746;2023-11-21T02:21:07;99356.66;;;10.15;81.01
11343;BME280;5726;42.160;24.746;2023-11-21T02:23:33;99357.81;;;10.28;80.07
11343;BME280;5726;42.160;24.746;2023-11-21T02:25:58;99370.13;;;10.10;80.64
11343;BME280;5726;42.160;24.746;2023-11-21T02:28:24;99363.16;;;10.09;81.83
11343;BME280;5726;42.160;24.746;2023-11-21T02:30:52;99368.06;;;10.21;81.47
11343;BME280;5726;42.160;24.746;2023-11-21T02:33:24;99371.34;;;10.36;80.03
11343;BME280;5726;42.160;24.746;2023-11-21T02:35:50;99364.59;;;10.20;80.70
11343;BME280;5726;42.160;24.746;2023-11-21T02:38:22;99370.13;;;10.47;80.22
11343;BME280;5726;42.160;24.746;2023-11-21T02:40:48;99355.78;;;10.20;79.90
11343;BME280;5726;42.160;24.746;2023-11-21T02:43:14;99357.97;;;10.36;79.72
11343;BME280;5726;42.160;24.746;2023-11-21T02:45:39;99366.94;;;10.45;79.39
11343;BME280;5726;42.160;24.746;2023-11-21T02:48:07;99367.13;;;10.48;78.74
11343;BME280;5726;42.160;24.746;2023-11-21T02:50:32;99368.63;;;10.73;77.67
11343;BME280;5726;42.160;24.746;2023-11-21T02:52:58;99366.75;;;10.73;77.77
11343;BME280;5726;42.160;24.746;2023-11-21T02:55:26;99360.41;;;10.51;78.76
11343;BME280;5726;42.160;24.746;2023-11-21T02:57:52;99370.84;;;10.34;80.34
11343;BME280;5726;42.160;24.746;2023-11-21T03:00:17;99368.09;;;10.39;80.18
11343;BME280;5726;42.160;24.746;2023-11-21T03:02:43;99372.78;;;10.47;79.93
11343;BME280;5726;42.160;24.746;2023-11-21T03:05:09;99377.13;;;10.06;81.63
11343;BME280;5726;42.160;24.746;2023-11-21T03:07:36;99372.78;;;9.69;83.54
11343;BME280;5726;42.160;24.746;2023-11-21T03:10:02;99375.84;;;9.81;82.76
11343;BME280;5726;42.160;24.746;2023-11-21T03:12:29;99370.53;;;9.99;82.34
11343;BME280;5726;42.160;24.746;2023-11-21T03:14:55;99369.69;;;10.03;82.62
11343;BME280;5726;42.160;24.746;2023-11-21T03:17:20;99373.81;;;10.14;82.22
11343;BME280;5726;42.160;24.746;2023-11-21T03:19:46;99368.91;;;10.21;82.00
11343;BME280;5726;42.160;24.746;2023-11-21T03:22:11;99372.78;;;10.47;80.44
11343;BME280;5726;42.160;24.746;2023-11-21T03:24:37;99368.50;;;10.46;80.25
11343;BME280;5726;42.160;24.746;2023-11-21T03:27:04;99364.03;;;10.42;80.46
11343;BME280;5726;42.160;24.746;2023-11-21T03:29:29;99365.41;;;10.39;80.54
11343;BME280;5726;42.160;24.746;2023-11-21T03:31:55;99372.78;;;10.47;79.88
11343;BME280;5726;42.160;24.746;2023-11-21T03:34:25;99372.06;;;10.42;79.96
11343;BME280;5726;42.160;24.746;2023-11-21T03:36:54;99371.13;;;10.51;79.73
11343;BME280;5726;42.160;24.746;2023-11-21T03:39:20;99368.75;;;10.49;80.11
11343;BME280;5726;42.160;24.746;2023-11-21T03:41:46;99374.81;;;10.37;81.12
11343;BME280;5726;42.160;24.746;2023-11-21T03:44:12;99367.94;;;10.12;82.02
11343;BME280;5726;42.160;24.746;2023-11-21T03:46:38;99376.06;;;10.07;83.06
11343;BME280;5726;42.160;24.746;2023-11-21T03:49:03;99367.56;;;10.19;82.52
11343;BME280;5726;42.160;24.746;2023-11-21T03:51:29;99377.13;;;10.43;81.33
11343;BME280;5726;42.160;24.746;2023-11-21T03:53:54;99374.97;;;10.45;80.96
11343;BME280;5726;42.160;24.746;2023-11-21T03:56:20;99372.41;;;10.53;80.56
11343;BME280;5726;42.160;24.746;2023-11-21T03:58:48;99378.38;;;10.69;79.81
11343;BME280;5726;42.160;24.746;2023-11-21T04:01:24;99387.91;;;10.56;80.43
11343;BME280;5726;42.160;24.746;2023-11-21T04:03:50;99390.25;;;10.63;80.01
11343;BME280;5726;42.160;24.746;2023-11-21T04:06:17;99397.78;;;10.61;80.34
11343;BME280;5726;42.160;24.746;2023-11-21T04:08:43;99398.78;;;10.65;80.25
11343;BME280;5726;42.160;24.746;2023-11-21T04:11:10;99380.69;;;10.57;80.58
11343;BME280;5726;42.160;24.746;2023-11-21T04:13:39;99378.94;;;10.66;80.13
11343;BME280;5726;42.160;24.746;2023-11-21T04:16:06;99384.81;;;10.68;79.84
11343;BME280;5726;42.160;24.746;2023-11-21T04:18:31;99390.47;;;10.66;80.02
11343;BME280;5726;42.160;24.746;2023-11-21T04:20:57;99386.16;;;10.65;80.33
11343;BME280;5726;42.160;24.746;2023-11-21T04:23:22;99387.81;;;10.80;79.28
11343;BME280;5726;42.160;24.746;2023-11-21T04:25:48;99379.63;;;10.90;78.61
11343;BME280;5726;42.160;24.746;2023-11-21T04:28:13;99385.44;;;10.78;78.70
11343;BME280;5726;42.160;24.746;2023-11-21T04:30:39;99401.38;;;10.70;79.18
11343;BME280;5726;42.160;24.746;2023-11-21T04:33:05;99408.84;;;10.73;79.41
11343;BME280;5726;42.160;24.746;2023-11-21T04:35:30;99406.75;;;10.70;79.46
11343;BME280;5726;42.160;24.746;2023-11-21T04:37:56;99416.19;;;10.67;79.77
11343;BME280;5726;42.160;24.746;2023-11-21T04:40:22;99407.56;;;10.70;79.19
11343;BME280;5726;42.160;24.746;2023-11-21T04:42:48;99402.53;;;10.64;79.21
11343;BME280;5726;42.160;24.746;2023-11-21T04:45:13;99397.03;;;10.37;80.41
11343;BME280;5726;42.160;24.746;2023-11-21T04:47:39;99405.31;;;10.41;80.52
11343;BME280;5726;42.160;24.746;2023-11-21T04:50:05;99409.06;;;10.58;77.81
11343;BME280;5726;42.160;24.746;2023-11-21T04:52:31;99397.88;;;10.38;77.10
11343;BME280;5726;42.160;24.746;2023-11-21T04:54:58;99399.28;;;9.89;80.11
11343;BME280;5726;42.160;24.746;2023-11-21T04:57:24;99405.00;;;9.82;80.73
11343;BME280;5726;42.160;24.746;2023-11-21T04:59:49;99404.19;;;9.82;81.19
11343;BME280;5726;42.160;24.746;2023-11-21T05:02:16;99408.88;;;9.95;80.70
11343;BME280;5726;42.160;24.746;2023-11-21T05:04:41;99401.38;;;9.97;81.52
11343;BME280;5726;42.160;24.746;2023-11-21T05:07:08;99399.53;;;10.15;79.71
11343;BME280;5726;42.160;24.746;2023-11-21T05:09:33;99383.28;;;10.07;78.68
11343;BME280;5726;42.160;24.746;2023-11-21T05:11:59;99400.28;;;9.98;79.92
11343;BME280;5726;42.160;24.746;2023-11-21T05:14:25;99401.25;;;9.60;81.28
11343;BME280;5726;42.160;24.746;2023-11-21T05:16:51;99412.94;;;9.69;81.79
11343;BME280;5726;42.160;24.746;2023-11-21T05:19:17;99413.25;;;9.86;84.40
11343;BME280;5726;42.160;24.746;2023-11-21T05:21:42;99412.19;;;9.87;83.31
11343;BME280;5726;42.160;24.746;2023-11-21T05:24:08;99413.69;;;9.98;83.21
11343;BME280;5726;42.160;24.746;2023-11-21T05:26:34;99417.97;;;10.53;91.47
11343;BME280;5726;42.160;24.746;2023-11-21T05:29:00;99415.41;;;11.30;86.71
11343;BME280;5726;42.160;24.746;2023-11-21T05:31:25;99418.00;;;11.80;82.64
11343;BME280;5726;42.160;24.746;2023-11-21T05:33:52;99412.03;;;11.96;77.06
11343;BME280;5726;42.160;24.746;2023-11-21T05:36:18;99412.63;;;11.67;75.78
11343;BME280;5726;42.160;24.746;2023-11-21T05:38:43;99419.38;;;11.01;74.64
11343;BME280;5726;42.160;24.746;2023-11-21T05:41:09;99417.47;;;10.70;76.46
11343;BME280;5726;42.160;24.746;2023-11-21T05:43:38;99416.03;;;10.59;76.43
11343;BME280;5726;42.160;24.746;2023-11-21T05:46:04;99420.88;;;10.39;77.02
11343;BME280;5726;42.160;24.746;2023-11-21T05:48:29;99422.47;;;10.40;77.01
11343;BME280;5726;42.160;24.746;2023-11-21T05:50:55;99421.16;;;10.37;77.33
11343;BME280;5726;42.160;24.746;2023-11-21T05:53:20;99432.34;;;10.26;77.38
11343;BME280;5726;42.160;24.746;2023-11-21T05:55:47;99422.28;;;9.95;79.84
11343;BME280;5726;42.160;24.746;2023-11-21T05:58:13;99415.28;;;9.99;80.16
11343;BME280;5726;42.160;24.746;2023-11-21T06:00:38;99413.56;;;10.07;79.52
11343;BME280;5726;42.160;24.746;2023-11-21T06:03:04;99409.66;;;10.18;79.31
11343;BME280;5726;42.160;24.746;2023-11-21T06:05:32;99409.88;;;10.22;79.75
11343;BME280;5726;42.160;24.746;2023-11-21T06:07:58;99420.75;;;10.48;78.25
11343;BME280;5726;42.160;24.746;2023-11-21T06:10:24;99426.47;;;10.60;78.00
11343;BME280;5726;42.160;24.746;2023-11-21T06:12:51;99426.44;;;10.79;76.36
11343;BME280;5726;42.160;24.746;2023-11-21T06:15:16;99424.88;;;10.78;76.04
11343;BME280;5726;42.160;24.746;2023-11-21T06:17:44;99423.28;;;10.77;76.74
11343;BME280;5726;42.160;24.746;2023-11-21T06:20:14;99426.22;;;10.94;75.98
11343;BME280;5726;42.160;24.746;2023-11-21T06:22:43;99431.91;;;11.05;74.92
11343;BME280;5726;42.160;24.746;2023-11-21T06:25:10;99433.09;;;10.99;75.06
11343;BME280;5726;42.160;24.746;2023-11-21T06:27:39;99429.06;;;10.84;75.62
11343;BME280;5726;42.160;24.746;2023-11-21T06:30:06;99426.03;;;10.72;76.21
11343;BME280;5726;42.160;24.746;2023-11-21T06:32:32;99425.34;;;10.06;80.22
11343;BME280;5726;42.160;24.746;2023-11-21T06:34:58;99425.72;;;10.18;80.74
11343;BME280;5726;42.160;24.746;2023-11-21T06:37:29;99433.13;;;10.26;79.82
11343;BME280;5726;42.160;24.746;2023-11-21T06:39:56;99429.56;;;10.49;78.04
11343;BME280;5726;42.160;24.746;2023-11-21T06:42:22;99428.38;;;10.60;77.06
11343;BME280;5726;42.160;24.746;2023-11-21T06:44:48;99430.66;;;10.30;78.82
11343;BME280;5726;42.160;24.746;2023-11-21T06:47:14;99427.56;;;10.00;80.39
11343;BME280;5726;42.160;24.746;2023-11-21T06:49:42;99423.50;;;9.79;81.51
11343;BME280;5726;42.160;24.746;2023-11-21T06:52:08;99425.19;;;9.98;80.66
11343;BME280;5726;42.160;24.746;2023-11-21T06:54:33;99422.69;;;10.25;78.94
11343;BME280;5726;42.160;24.746;2023-11-21T06:57:00;99426.16;;;10.25;78.86
11343;BME280;5726;42.160;24.746;2023-11-21T06:59:25;99423.56;;;10.20;78.27
11343;BME280;5726;42.160;24.746;2023-11-21T07:01:53;99421.81;;;10.29;78.38
11343;BME280;5726;42.160;24.746;2023-11-21T07:04:19;99427.63;;;10.36;77.70
11343;BME280;5726;42.160;24.746;2023-11-21T07:06:45;99434.63;;;10.14;79.46
11343;BME280;5726;42.160;24.746;2023-11-21T07:09:11;99433.84;;;10.32;78.53
11343;BME280;5726;42.160;24.746;2023-11-21T07:11:37;99432.91;;;10.59;77.31
11343;BME280;5726;42.160;24.746;2023-11-21T07:14:03;99433.50;;;10.56;77.60
11343;BME280;5726;42.160;24.746;2023-11-21T07:16:34;99433.78;;;10.55;77.66
11343;BME280;5726;42.160;24.746;2023-11-21T07:19:00;99432.41;;;10.76;77.04
11343;BME280;5726;42.160;24.746;2023-11-21T07:21:25;99439.84;;;10.79;76.58
11343;BME280;5726;42.160;24.746;2023-11-21T07:23:51;99441.03;;;10.91;75.89
11343;BME280;5726;42.160;24.746;2023-11-21T07:26:17;99441.13;;;11.18;75.73
11343;BME280;5726;42.160;24.746;2023-11-21T07:28:42;99431.41;;;11.35;74.49
11343;BME280;5726;42.160;24.746;2023-11-21T07:31:08;99426.03;;;11.35;74.16
11343;BME280;5726;42.160;24.746;2023-11-21T07:33:33;99425.66;;;11.28;74.42
11343;BME280;5726;42.160;24.746;2023-11-21T07:35:59;99425.69;;;11.42;73.69
11343;BME280;5726;42.160;24.746;2023-11-21T07:38:24;99431.38;;;11.22;74.32
11343;BME280;5726;42.160;24.746;2023-11-21T07:40:50;99434.78;;;11.27;74.66
11343;BME280;5726;42.160;24.746;2023-11-21T07:43:15;99432.00;;;11.32;74.69
11343;BME280;5726;42.160;24.746;2023-11-21T07:45:40;99434.88;;;11.54;73.72
11343;BME280;5726;42.160;24.746;2023-11-21T07:48:07;99439.84;;;11.74;73.10
11343;BME280;5726;42.160;24.746;2023-11-21T07:50:32;99445.94;;;11.66;84.02
11343;BME280;5726;42.160;24.746;2023-11-21T07:52:58;99444.84;;;11.93;95.00
11343;BME280;5726;42.160;24.746;2023-11-21T07:55:24;99443.72;;;12.21;86.83
11343;BME280;5726;42.160;24.746;2023-11-21T07:57:50;99443.59;;;12.53;82.41
11343;BME280;5726;42.160;24.746;2023-11-21T08:00:16;99441.75;;;12.75;82.30
11343;BME280;5726;42.160;24.746;2023-11-21T08:02:41;99445.91;;;12.94;76.17
11343;BME280;5726;42.160;24.746;2023-11-21T08:05:12;99433.47;;;13.29;72.26
11343;BME280;5726;42.160;24.746;2023-11-21T08:07:38;99429.09;;;13.41;69.78
11343;BME280;5726;42.160;24.746;2023-11-21T08:10:04;99431.94;;;13.36;68.74
11343;BME280;5726;42.160;24.746;2023-11-21T08:12:32;99437.94;;;13.33;68.31
11343;BME280;5726;42.160;24.746;2023-11-21T08:14:58;99433.94;;;13.31;68.53
11343;BME280;5726;42.160;24.746;2023-11-21T08:17:24;99431.50;;;13.42;68.81
11343;BME280;5726;42.160;24.746;2023-11-21T08:19:49;99428.56;;;13.61;69.45
11343;BME280;5726;42.160;24.746;2023-11-21T08:22:16;99428.81;;;13.81;67.76
11343;BME280;5726;42.160;24.746;2023-11-21T08:24:43;99432.19;;;13.86;67.16
11343;BME280;5726;42.160;24.746;2023-11-21T08:27:09;99427.75;;;14.37;66.79
11343;BME280;5726;42.160;24.746;2023-11-21T08:29:35;99431.13;;;14.60;65.56
11343;BME280;5726;42.160;24.746;2023-11-21T08:32:02;99423.19;;;14.88;65.24
11343;BME280;5726;42.160;24.746;2023-11-21T08:34:27;99413.97;;;15.23;63.61
11343;BME280;5726;42.160;24.746;2023-11-21T08:36:54;99414.91;;;15.27;63.07
11343;BME280;5726;42.160;24.746;2023-11-21T08:39:20;99410.41;;;15.56;61.90
11343;BME280;5726;42.160;24.746;2023-11-21T08:41:49;99415.06;;;15.39;62.34
11343;BME280;5726;42.160;24.746;2023-11-21T08:44:16;99408.16;;;15.58;60.82
11343;BME280;5726;42.160;24.746;2023-11-21T08:46:43;99417.88;;;15.59;60.99
11343;BME280;5726;42.160;24.746;2023-11-21T08:49:11;99415.75;;;15.73;60.39
11343;BME280;5726;42.160;24.746;2023-11-21T08:51:37;99402.38;;;15.77;62.37
11343;BME280;5726;42.160;24.746;2023-11-21T08:54:03;99399.72;;;15.68;61.19
11343;BME280;5726;42.160;24.746;2023-11-21T08:56:30;99390.84;;;15.59;61.90
11343;BME280;5726;42.160;24.746;2023-11-21T08:58:55;99387.50;;;15.54;62.05
11343;BME280;5726;42.160;24.746;2023-11-21T09:01:22;99387.13;;;15.72;61.81
11343;BME280;5726;42.160;24.746;2023-11-21T09:03:48;99383.28;;;15.81;61.73
11343;BME280;5726;42.160;24.746;2023-11-21T09:06:15;99375.91;;;15.90;60.25
11343;BME280;5726;42.160;24.746;2023-11-21T09:08:40;99374.84;;;15.83;60.07
11343;BME280;5726;42.160;24.746;2023-11-21T09:11:07;99367.25;;;15.31;62.08
11343;BME280;5726;42.160;24.746;2023-11-21T09:13:33;99366.03;;;15.20;63.18
11343;BME280;5726;42.160;24.746;2023-11-21T09:15:59;99363.13;;;15.25;63.37
11343;BME280;5726;42.160;24.746;2023-11-21T09:18:25;99359.38;;;15.55;62.45
11343;BME280;5726;42.160;24.746;2023-11-21T09:20:51;99362.56;;;15.48;62.11
11343;BME280;5726;42.160;24.746;2023-11-21T09:23:16;99356.38;;;15.48;61.31
11343;BME280;5726;42.160;24.746;2023-11-21T09:25:42;99350.63;;;15.58;60.85
11343;BME280;5726;42.160;24.746;2023-11-21T09:28:11;99342.88;;;15.39;61.15
11343;BME280;5726;42.160;24.746;2023-11-21T09:30:37;99341.03;;;15.23;62.74
11343;BME280;5726;42.160;24.746;2023-11-21T09:33:03;99336.91;;;15.26;63.22
11343;BME280;5726;42.160;24.746;2023-11-21T09:35:32;99336.81;;;15.51;61.28
11343;BME280;5726;42.160;24.746;2023-11-21T09:37:57;99324.56;;;15.53;60.74
11343;BME280;5726;42.160;24.746;2023-11-21T09:40:23;99336.44;;;15.24;62.60
11343;BME280;5726;42.160;24.746;2023-11-21T09:42:54;99324.16;;;15.43;62.42
11343;BME280;5726;42.160;24.746;2023-11-21T09:47:53;99327.13;;;15.50;61.79
11343;BME280;5726;42.160;24.746;2023-11-21T09:50:20;99327.13;;;15.50;60.73
11343;BME280;5726;42.160;24.746;2023-11-21T09:53:18;99316.47;;;15.53;61.42
11343;BME280;5726;42.160;24.746;2023-11-21T09:55:47;99310.56;;;15.51;60.30
11343;BME280;5726;42.160;24.746;2023-11-21T09:58:14;99306.56;;;15.57;60.72
11343;BME280;5726;42.160;24.746;2023-11-21T10:00:41;99296.56;;;15.58;60.90
11343;BME280;5726;42.160;24.746;2023-11-21T10:03:08;99298.09;;;15.38;62.35
11343;BME280;5726;42.160;24.746;2023-11-21T10:05:35;99295.13;;;15.60;60.53
11343;BME280;5726;42.160;24.746;2023-11-21T10:08:00;99294.72;;;15.78;59.29
11343;BME280;5726;42.160;24.746;2023-11-21T10:10:27;99281.38;;;15.74;59.83
11343;BME280;5726;42.160;24.746;2023-11-21T10:12:56;99275.66;;;15.95;59.02
11343;BME280;5726;42.160;24.746;2023-11-21T10:15:23;99266.69;;;15.83;59.67
11343;BME280;5726;42.160;24.746;2023-11-21T10:17:50;99257.97;;;15.77;59.57
11343;BME280;5726;42.160;24.746;2023-11-21T10:20:19;99249.75;;;15.74;59.57
11343;BME280;5726;42.160;24.746;2023-11-21T10:22:45;99259.81;;;15.65;59.65
11343;BME280;5726;42.160;24.746;2023-11-21T10:25:12;99251.38;;;15.87;59.06
11343;BME280;5726;42.160;24.746;2023-11-21T10:27:40;99248.28;;;15.77;59.15
11343;BME280;5726;42.160;24.746;2023-11-21T10:30:07;99250.97;;;15.77;59.68
11343;BME280;5726;42.160;24.746;2023-11-21T10:32:42;99246.91;;;15.91;59.24
11343;BME280;5726;42.160;24.746;2023-11-21T10:35:08;99241.56;;;15.82;59.02
11343;BME280;5726;42.160;24.746;2023-11-21T10:37:44;99247.31;;;16.01;59.50
11343;BME280;5726;42.160;24.746;2023-11-21T10:40:10;99246.00;;;16.07;58.58
11343;BME280;5726;42.160;24.746;2023-11-21T10:42:40;99239.84;;;15.98;59.09
11343;BME280;5726;42.160;24.746;2023-11-21T10:45:10;99236.53;;;15.93;60.04
11343;BME280;5726;42.160;24.746;2023-11-21T10:47:42;99230.47;;;16.16;58.82
11343;BME280;5726;42.160;24.746;2023-11-21T10:50:09;99231.22;;;16.25;57.89
11343;BME280;5726;42.160;24.746;2023-11-21T10:52:37;99233.56;;;16.06;58.15
11343;BME280;5726;42.160;24.746;2023-11-21T10:55:24;99219.59;;;16.04;57.75
11343;BME280;5726;42.160;24.746;2023-11-21T10:57:53;99222.91;;;15.89;57.68
11343;BME280;5726;42.160;24.746;2023-11-21T11:00:19;99217.56;;;15.81;58.01
11343;BME280;5726;42.160;24.746;2023-11-21T11:02:54;99228.69;;;15.79;59.32
11343;BME280;5726;42.160;24.746;2023-11-21T11:05:24;99216.06;;;15.92;58.43
11343;BME280;5726;42.160;24.746;2023-11-21T11:07:52;99213.25;;;16.00;57.85
11343;BME280;5726;42.160;24.746;2023-11-21T11:10:26;99206.25;;;16.20;66.57
11343;BME280;5726;42.160;24.746;2023-11-21T11:12:53;99202.44;;;16.41;61.46
11343;BME280;5726;42.160;24.746;2023-11-21T11:15:19;99205.63;;;16.55;61.92
11343;BME280;5726;42.160;24.746;2023-11-21T11:17:46;99199.22;;;16.59;62.46
11343;BME280;5726;42.160;24.746;2023-11-21T11:20:13;99182.66;;;16.73;61.99
11343;BME280;5726;42.160;24.746;2023-11-21T11:23:10;99168.13;;;16.77;57.94
11343;BME280;5726;42.160;24.746;2023-11-21T11:28:27;99166.19;;;16.66;59.52
11343;BME280;5726;42.160;24.746;2023-11-21T11:31:04;99156.88;;;16.43;57.86
11343;BME280;5726;42.160;24.746;2023-11-21T11:38:47;99119.38;;;15.89;58.37
11343;BME280;5726;42.160;24.746;2023-11-21T11:41:33;99095.00;;;15.57;59.99
11343;BME280;5726;42.160;24.746;2023-11-21T11:44:00;99091.59;;;15.48;59.59
11343;BME280;5726;42.160;24.746;2023-11-21T11:46:45;99091.41;;;15.32;59.88
11343;BME280;5726;42.160;24.746;2023-11-21T11:49:24;99100.38;;;15.16;61.54
11343;BME280;5726;42.160;24.746;2023-11-21T11:54:55;99097.50;;;15.21;60.27
11343;BME280;5726;42.160;24.746;2023-11-21T11:57:24;99098.34;;;15.33;60.07
11343;BME280;5726;42.160;24.746;2023-11-21T12:00:12;99077.72;;;15.29;60.85
11343;BME280;5726;42.160;24.746;2023-11-21T12:02:51;99069.69;;;15.41;60.13
11343;BME280;5726;42.160;24.746;2023-11-21T12:05:18;99073.81;;;15.27;60.84
11343;BME280;5726;42.160;24.746;2023-11-21T12:10:15;99080.00;;;14.98;61.63
11343;BME280;5726;42.160;24.746;2023-11-21T12:12:47;99082.78;;;15.10;61.24
11343;BME280;5726;42.160;24.746;2023-11-21T12:15:13;99082.25;;;14.96;61.76
11343;BME280;5726;42.160;24.746;2023-11-21T12:17:41;99081.22;;;14.81;62.08
11343;BME280;5726;42.160;24.746;2023-11-21T12:20:07;99078.59;;;15.21;61.10
11343;BME280;5726;42.160;24.746;2023-11-21T12:22:52;99070.97;;;14.94;62.07
11343;BME280;5726;42.160;24.746;2023-11-21T12:25:19;99064.66;;;14.90;62.53
11343;BME280;5726;42.160;24.746;2023-11-21T12:27:49;99080.94;;;15.02;61.43
11343;BME280;5726;42.160;24.746;2023-11-21T12:30:16;99087.06;;;14.82;62.68
11343;BME280;5726;42.160;24.746;2023-11-21T12:32:44;99091.53;;;15.07;61.89
11343;BME280;5726;42.160;24.746;2023-11-21T12:35:12;99097.72;;;15.08;61.83
11343;BME280;5726;42.160;24.746;2023-11-21T12:37:38;99101.28;;;15.00;62.70
11343;BME280;5726;42.160;24.746;2023-11-21T12:40:06;99090.09;;;15.10;62.41
11343;BME280;5726;42.160;24.746;2023-11-21T12:42:33;99076.69;;;15.22;61.88
11343;BME280;5726;42.160;24.746;2023-11-21T12:45:19;99081.28;;;15.21;61.64
11343;BME280;5726;42.160;24.746;2023-11-21T12:47:47;99081.19;;;15.09;62.23
11343;BME280;5726;42.160;24.746;2023-11-21T12:50:26;99076.59;;;15.10;62.13
11343;BME280;5726;42.160;24.746;2023-11-21T12:53:14;99062.25;;;15.38;61.71
11343;BME280;5726;42.160;24.746;2023-11-21T12:55:43;99057.72;;;15.30;61.35
11343;BME280;5726;42.160;24.746;2023-11-21T12:58:15;99051.66;;;15.33;61.67
11343;BME280;5726;42.160;24.746;2023-11-21T13:00:46;99053.63;;;15.24;62.10
11343;BME280;5726;42.160;24.746;2023-11-21T13:03:13;99058.00;;;15.37;62.12
11343;BME280;5726;42.160;24.746;2023-11-21T13:05:43;99059.31;;;15.31;62.33
11343;BME280;5726;42.160;24.746;2023-11-21T13:08:12;99064.31;;;15.21;62.55
11343;BME280;5726;42.160;24.746;2023-11-21T13:10:40;99062.13;;;15.34;62.09
11343;BME280;5726;42.160;24.746;2023-11-21T13:13:09;99064.72;;;15.31;62.30
11343;BME280;5726;42.160;24.746;2023-11-21T13:15:39;99052.16;;;15.47;62.34
11343;BME280;5726;42.160;24.746;2023-11-21T13:18:06;99057.34;;;15.40;62.39